Time;durP1;ratioP1;P1;durP2;ratioP2;P2;SDS_P1;SDS_P2;PMS_P1;PMS_P2;Temp;Humidity;BMP_temperature;BMP_pressure;BME280_temperature;BME280_humidity;BME280_pressure;Samples;Min_cycle;Max_cycle;Signal;HPM_P1;HPM_P2
2021/01/13 00:00:19;;;;;;;15.68;3.15;;;;;;;-0.71;98.68;100971.38;5038627;28;20029;-78
2021/01/13 00:02:45;;;;;;;13.18;2.60;;;;;;;-0.50;98.81;100982.44;5010894;28;20083;-79
2021/01/13 00:05:13;;;;;;;15.77;3.00;;;;;;;-0.67;99.07;100982.38;5019592;28;20034;-79
2021/01/13 00:07:40;;;;;;;12.63;2.90;;;;;;;-0.68;99.18;100976.41;5014999;28;20037;-78
2021/01/13 00:10:06;;;;;;;18.38;2.97;;;;;;;-0.59;99.29;100968.22;5019970;28;20049;-78
2021/01/13 00:12:32;;;;;;;24.75;2.88;;;;;;;-0.50;98.86;100967.00;5033981;28;20029;-79
2021/01/13 00:14:58;;;;;;;27.50;3.88;;;;;;;-0.59;99.07;100978.53;5035210;28;20049;-79
2021/01/13 00:17:24;;;;;;;19.13;2.90;;;;;;;-0.54;99.53;100969.78;5010553;28;20035;-77
2021/01/13 00:19:50;;;;;;;23.67;2.92;;;;;;;-0.63;99.62;100977.00;5002445;28;20029;-79
2021/01/13 00:22:15;;;;;;;20.10;2.85;;;;;;;-0.63;99.57;100968.44;5003764;28;20049;-78
2021/01/13 00:24:47;;;;;;;22.50;3.05;;;;;;;-0.69;99.67;100997.06;5009573;28;20040;-78
2021/01/13 00:27:22;;;;;;;16.02;1.75;;;;;;;-0.48;99.95;101021.88;5012188;28;20115;-75
2021/01/13 00:29:49;;;;;;;23.75;3.03;;;;;;;-0.47;99.81;100996.94;5037328;28;20172;-78
2021/01/13 00:32:15;;;;;;;19.38;1.85;;;;;;;-0.21;98.63;101008.63;5040080;28;20089;-77
2021/01/13 00:34:40;;;;;;;18.92;2.00;;;;;;;-0.24;98.33;101013.94;5033341;28;20104;-77
2021/01/13 00:37:07;;;;;;;18.30;2.45;;;;;;;-0.21;98.37;100990.59;5015065;28;20038;-77
2021/01/13 00:39:32;;;;;;;16.10;1.60;;;;;;;-0.29;98.70;100990.94;5019476;28;20118;-77
2021/01/13 00:41:58;;;;;;;14.68;2.30;;;;;;;-0.35;98.50;100986.06;5009997;28;20029;-78
2021/01/13 00:44:26;;;;;;;14.20;2.30;;;;;;;-0.31;98.08;100979.88;5039865;28;20033;-77
2021/01/13 00:46:52;;;;;;;13.52;2.55;;;;;;;-0.30;98.10;100975.53;4994854;28;20105;-77
2021/01/13 00:49:17;;;;;;;11.60;2.92;;;;;;;-0.34;98.48;100985.19;5024179;28;20057;-78
2021/01/13 00:51:43;;;;;;;15.68;3.33;;;;;;;-0.38;98.45;100990.53;5013323;28;20095;-77
2021/01/13 00:54:11;;;;;;;12.10;2.67;;;;;;;-0.52;98.87;100979.09;5001862;28;20038;-76
2021/01/13 00:56:45;;;;;;;18.52;2.95;;;;;;;-0.57;98.84;100964.75;5004185;28;20471;-77
2021/01/13 00:59:11;;;;;;;10.90;3.17;;;;;;;-0.46;99.21;100972.84;5028494;28;20511;-77
2021/01/13 01:01:38;;;;;;;18.10;3.53;;;;;;;-0.43;98.82;100964.97;4998611;28;20105;-77
2021/01/13 01:04:09;;;;;;;21.83;3.58;;;;;;;-0.33;98.42;100968.78;5021125;28;20084;-77
2021/01/13 01:06:35;;;;;;;21.20;2.92;;;;;;;-0.27;98.09;100958.19;5033674;28;20033;-77
2021/01/13 01:09:01;;;;;;;21.52;3.08;;;;;;;-0.17;97.60;100966.34;5017316;28;20099;-77
2021/01/13 01:11:32;;;;;;;16.00;2.40;;;;;;;-0.09;97.39;100966.00;5017189;28;20030;-77
2021/01/13 01:13:59;;;;;;;13.50;1.80;;;;;;;-0.09;97.42;100968.56;5016906;28;20134;-77
2021/01/13 01:16:35;;;;;;;21.17;1.45;;;;;;;-0.17;97.38;100961.19;5017211;28;20034;-77
2021/01/13 01:19:01;;;;;;;13.70;1.35;;;;;;;-0.13;97.27;100957.56;5017094;28;20101;-78
2021/01/13 01:21:27;;;;;;;13.30;1.17;;;;;;;-0.10;96.65;100957.41;5015891;28;20045;-78
2021/01/13 01:23:53;;;;;;;13.40;1.67;;;;;;;-0.18;96.97;100962.09;4987473;28;20625;-76
2021/01/13 01:26:19;;;;;;;13.95;1.17;;;;;;;-0.14;97.18;100955.03;5017517;28;20098;-77
2021/01/13 01:28:44;;;;;;;8.98;1.13;;;;;;;-0.09;96.62;100951.34;5017142;28;20403;-77
2021/01/13 01:31:10;;;;;;;10.70;1.23;;;;;;;-0.07;96.75;100957.25;4997639;28;20509;-76
2021/01/13 01:33:35;;;;;;;9.65;1.00;;;;;;;-0.13;97.17;100954.97;5012938;28;20052;-76
2021/01/13 01:36:01;;;;;;;11.18;1.15;;;;;;;-0.13;97.19;100964.44;5017790;28;20102;-76
2021/01/13 01:38:26;;;;;;;7.43;0.82;;;;;;;-0.23;97.55;100962.31;5017410;28;20124;-76
2021/01/13 01:40:52;;;;;;;14.43;1.00;;;;;;;-0.31;98.08;100961.00;5016533;28;20115;-77
2021/01/13 01:43:17;;;;;;;8.75;1.30;;;;;;;-0.26;98.29;100956.47;4984213;28;20510;-76
2021/01/13 01:45:43;;;;;;;10.00;1.05;;;;;;;-0.28;98.01;100978.91;4994062;28;20472;-75
2021/01/13 01:48:21;;;;;;;12.52;1.08;;;;;;;-0.28;97.79;100977.16;5032329;28;20068;-77
2021/01/13 01:50:47;;;;;;;12.15;1.25;;;;;;;-0.25;97.43;100960.69;5000079;28;20662;-77
2021/01/13 01:53:37;;;;;;;7.47;0.80;;;;;;;-0.28;98.06;100961.69;5016268;28;20538;-78
2021/01/13 01:56:28;;;;;;;13.32;1.30;;;;;;;-0.40;98.54;100977.72;4984233;28;20042;-76
2021/01/13 01:59:02;;;;;;;4.57;0.63;;;;;;;-0.41;98.28;100976.06;5000947;28;20045;-78
2021/01/13 02:01:40;;;;;;;7.80;1.17;;;;;;;-0.37;98.47;100966.44;5035154;28;20025;-77
2021/01/13 02:04:25;;;;;;;7.43;1.00;;;;;;;-0.29;97.84;100960.00;5043219;28;20486;-78
2021/01/13 02:07:08;;;;;;;9.15;1.15;;;;;;;-0.35;97.88;100960.28;5030348;28;20410;-76
2021/01/13 02:09:35;;;;;;;14.10;1.10;;;;;;;-0.29;97.68;100949.69;5006062;28;20620;-76
2021/01/13 02:12:09;;;;;;;12.02;1.55;;;;;;;-0.31;97.68;100951.50;5027717;28;20080;-76
2021/01/13 02:14:35;;;;;;;8.48;1.10;;;;;;;-0.34;97.59;100945.66;5024208;28;20040;-77
2021/01/13 02:17:03;;;;;;;10.98;1.55;;;;;;;-0.18;96.95;100938.88;4996803;28;20067;-77
2021/01/13 02:20:06;;;;;;;15.88;1.40;;;;;;;0.06;96.04;100936.88;5000386;28;20096;-76
2021/01/13 02:23:05;;;;;;;16.17;1.30;;;;;;;0.06;96.06;100938.59;4999224;28;20193;-77
2021/01/13 02:25:55;;;;;;;23.75;1.80;;;;;;;0.31;94.94;100936.50;4989188;28;20068;-76
2021/01/13 02:28:25;;;;;;;18.15;1.65;;;;;;;0.18;95.43;100932.84;5033906;28;20026;-76
2021/01/13 02:31:03;;;;;;;11.85;1.67;;;;;;;0.21;95.48;100943.03;5016620;28;20060;-77
2021/01/13 02:33:50;;;;;;;14.52;1.50;;;;;;;0.30;94.61;100947.75;4999345;28;20651;-75
2021/01/13 02:36:20;;;;;;;14.55;1.55;;;;;;;0.20;95.51;100954.25;4999310;28;20041;-76
2021/01/13 02:38:51;;;;;;;19.15;1.45;;;;;;;0.23;95.62;100946.38;5016438;28;20034;-76
2021/01/13 02:41:19;;;;;;;17.42;1.88;;;;;;;0.40;94.94;100942.97;5016570;28;20030;-77
2021/01/13 02:44:02;;;;;;;13.50;1.40;;;;;;;0.59;93.90;100932.56;5016044;28;20059;-76
2021/01/13 02:46:36;;;;;;;12.25;1.48;;;;;;;0.48;94.99;100953.72;5038706;28;20102;-76
2021/01/13 02:49:03;;;;;;;19.73;1.67;;;;;;;0.34;96.07;100975.06;5011368;28;20514;-77
2021/01/13 02:51:30;;;;;;;15.43;1.90;;;;;;;0.26;95.66;100953.94;5030946;28;20030;-77
2021/01/13 02:53:57;;;;;;;16.58;1.80;;;;;;;0.43;94.76;100973.75;5012743;28;20092;-77
2021/01/13 02:56:40;;;;;;;15.48;1.88;;;;;;;0.17;96.08;100977.63;5013060;28;20581;-76
2021/01/13 02:59:09;;;;;;;13.02;1.38;;;;;;;0.31;95.80;100970.06;5013940;28;20045;-76
2021/01/13 03:01:38;;;;;;;15.98;1.50;;;;;;;0.18;96.04;100964.66;5017342;28;20132;-76
2021/01/13 03:04:04;;;;;;;13.27;1.65;;;;;;;0.31;95.67;100957.16;5016069;28;20487;-77
2021/01/13 03:06:35;;;;;;;17.05;1.45;;;;;;;0.14;96.54;100970.03;5015885;28;20099;-76
2021/01/13 03:09:03;;;;;;;19.65;1.73;;;;;;;0.06;96.96;100961.81;5016142;28;20036;-76
2021/01/13 03:11:29;;;;;;;10.73;1.40;;;;;;;0.15;97.03;100951.06;5021109;28;20120;-76
2021/01/13 03:14:08;;;;;;;12.30;1.50;;;;;;;0.25;96.49;100965.19;5006988;28;20072;-76
2021/01/13 03:16:44;;;;;;;13.20;1.13;;;;;;;0.17;96.19;100949.25;5012359;28;20040;-76
2021/01/13 03:19:17;;;;;;;12.60;1.70;;;;;;;0.04;96.99;100950.75;5016099;28;20049;-78
2021/01/13 03:21:54;;;;;;;17.45;1.90;;;;;;;-0.01;97.03;100954.38;5016069;28;20080;-76
2021/01/13 03:25:03;;;;;;;24.02;2.83;;;;;;;0.03;96.45;100955.06;5003930;28;20037;-75
2021/01/13 03:27:31;;;;;;;14.15;2.00;;;;;;;0.06;96.64;100944.63;4959675;28;20046;-75
2021/01/13 03:29:58;;;;;;;13.88;1.55;;;;;;;0.07;96.53;100935.94;4984278;28;20435;-76
2021/01/13 03:32:37;;;;;;;16.40;1.52;;;;;;;0.15;96.47;100941.59;5015641;28;20159;-76
2021/01/13 03:35:11;;;;;;;20.98;2.38;;;;;;;0.12;96.80;100958.97;5038792;28;20045;-76
2021/01/13 03:37:56;;;;;;;14.75;1.35;;;;;;;0.15;96.65;100948.47;5006042;28;20030;-77
2021/01/13 03:40:24;;;;;;;14.13;1.75;;;;;;;0.29;96.42;100958.97;5018676;28;20033;-76
2021/01/13 03:42:56;;;;;;;18.80;1.73;;;;;;;0.26;96.54;100972.00;5019455;28;20104;-77
2021/01/13 03:45:33;;;;;;;12.90;1.67;;;;;;;0.30;96.44;100976.13;5004048;28;20052;-77
2021/01/13 03:48:04;;;;;;;11.02;1.70;;;;;;;0.28;95.95;100980.50;5010061;28;20385;-76
2021/01/13 03:50:36;;;;;;;16.50;1.58;;;;;;;0.16;96.65;100986.28;5034244;28;20120;-76
2021/01/13 03:53:09;;;;;;;17.10;2.05;;;;;;;0.02;97.65;100980.94;5019364;28;20061;-79
2021/01/13 03:55:38;;;;;;;14.27;2.13;;;;;;;0.04;97.78;100955.91;5003236;28;20029;-76
2021/01/13 03:58:41;;;;;;;16.83;1.60;;;;;;;0.20;96.47;100951.69;5002855;28;20033;-77
2021/01/13 04:01:22;;;;;;;11.88;1.45;;;;;;;0.18;97.33;100935.44;5037393;28;20052;-78
2021/01/13 04:04:08;;;;;;;12.90;1.55;;;;;;;0.15;96.96;100958.78;5002675;28;20049;-76
2021/01/13 04:06:41;;;;;;;8.75;1.35;;;;;;;0.18;96.93;100962.06;5019084;28;20064;-76
2021/01/13 04:09:09;;;;;;;12.45;1.30;;;;;;;0.27;96.78;100939.31;5029915;28;20036;-75
2021/01/13 04:11:35;;;;;;;15.55;1.67;;;;;;;0.30;96.86;100962.38;5035310;28;20056;-76
2021/01/13 04:14:03;;;;;;;19.17;1.95;;;;;;;0.07;97.52;100973.81;5027636;28;20423;-77
2021/01/13 04:16:36;;;;;;;10.35;1.75;;;;;;;-0.01;98.06;100982.75;5034681;28;20076;-76
2021/01/13 04:19:02;;;;;;;;;;;;;;;0.03;97.91;100985.19;5001994;28;20072;-77
2021/01/13 04:21:28;;;;;;;10.65;1.40;;;;;;;-0.03;97.52;100960.53;5001656;28;19913;-79
2021/01/13 04:23:58;;;;;;;14.25;1.92;;;;;;;-0.11;96.98;100948.00;5018769;28;20511;-77
2021/01/13 04:26:25;;;;;;;13.57;1.40;;;;;;;-0.22;97.54;100956.22;4986241;28;20071;-77
2021/01/13 04:28:50;;;;;;;5.47;1.23;;;;;;;-0.18;97.82;100951.78;5002330;28;20033;-77
2021/01/13 04:31:16;;;;;;;9.25;1.27;;;;;;;-0.24;97.82;100947.75;5034930;28;20026;-78
2021/01/13 04:33:42;;;;;;;5.45;0.90;;;;;;;-0.30;97.67;100963.50;5035577;28;20057;-77
2021/01/13 04:36:08;;;;;;;5.20;0.90;;;;;;;-0.34;97.69;100959.41;5018560;28;20039;-77
2021/01/13 04:38:35;;;;;;;10.63;1.88;;;;;;;-0.46;97.96;100959.94;5035082;28;20037;-78
2021/01/13 04:41:14;;;;;;;12.40;1.20;;;;;;;-0.52;97.90;100948.19;5034091;28;20543;-78
2021/01/13 04:44:00;;;;;;;9.15;1.27;;;;;;;-0.55;98.34;100934.59;5017166;28;20132;-77
2021/01/13 04:46:31;;;;;;;14.10;1.30;;;;;;;-0.53;98.69;100932.78;5015298;28;20499;-78
2021/01/13 04:49:01;;;;;;;11.40;1.27;;;;;;;-0.49;98.41;100934.31;4998869;28;20403;-78
2021/01/13 04:51:26;;;;;;;8.75;1.83;;;;;;;-0.51;98.55;100938.72;5000421;28;20037;-77
2021/01/13 04:53:54;;;;;;;6.45;1.58;;;;;;;-0.50;98.66;100917.19;5001166;28;20060;-78
2021/01/13 04:56:24;;;;;;;11.95;1.80;;;;;;;-0.36;98.38;100932.84;4997147;28;20041;-78
2021/01/13 04:59:11;;;;;;;12.30;1.73;;;;;;;-0.35;98.97;100929.38;4981407;28;20393;-77
2021/01/13 05:01:58;;;;;;;11.65;1.55;;;;;;;-0.20;98.46;100918.31;4979366;28;20095;-75
2021/01/13 05:04:27;;;;;;;9.38;1.50;;;;;;;-0.20;98.17;100917.50;5016933;28;20037;-77
2021/01/13 05:07:31;;;;;;;9.63;1.42;;;;;;;-0.19;98.02;100895.94;5001319;28;20056;-77
2021/01/13 05:10:08;;;;;;;11.63;1.50;;;;;;;-0.33;98.13;100903.53;5029056;28;20033;-76
2021/01/13 05:12:51;;;;;;;13.75;1.80;;;;;;;-0.39;99.13;100902.06;5032883;28;20107;-78
2021/01/13 05:15:31;;;;;;;17.90;1.90;;;;;;;-0.35;99.31;100895.84;5016442;28;20037;-76
2021/01/13 05:18:08;;;;;;;9.45;1.65;;;;;;;-0.24;99.10;100891.03;5015858;28;20034;-78
2021/01/13 05:20:36;;;;;;;15.23;2.00;;;;;;;-0.20;98.66;100899.44;5017139;28;20030;-78
2021/01/13 05:23:03;;;;;;;15.98;2.15;;;;;;;-0.18;99.19;100887.31;5016712;28;20033;-78
2021/01/13 05:25:48;;;;;;;12.43;2.50;;;;;;;-0.11;98.51;100890.44;5016916;28;20041;-78
2021/01/13 05:28:25;;;;;;;18.58;2.17;;;;;;;-0.09;98.48;100892.03;5017340;28;20037;-78
2021/01/13 05:30:52;;;;;;;24.55;2.90;;;;;;;-0.07;98.62;100894.53;5000900;28;20521;-77
2021/01/13 05:33:23;;;;;;;17.45;2.58;;;;;;;-0.06;98.91;100899.63;5034702;28;20120;-77
2021/01/13 05:35:54;;;;;;;11.48;2.40;;;;;;;0.02;98.58;100893.25;5017210;28;20064;-77
2021/01/13 05:38:52;;;;;;;13.90;2.42;;;;;;;0.12;98.80;100886.75;5034489;28;20072;-77
2021/01/13 05:41:17;;;;;;;12.80;2.53;;;;;;;0.19;97.93;100890.69;5001199;28;20040;-77
2021/01/13 05:43:48;;;;;;;9.43;2.50;;;;;;;0.25;98.13;100881.81;5032618;28;20033;-76
2021/01/13 05:46:19;;;;;;;11.43;2.60;;;;;;;0.11;98.38;100887.63;5023121;28;20025;-77
2021/01/13 05:48:53;;;;;;;16.52;2.53;;;;;;;0.30;98.04;100900.44;5036668;28;20112;-77
2021/01/13 05:51:29;;;;;;;8.98;2.13;;;;;;;0.26;98.15;100897.19;5027334;28;20469;-76
2021/01/13 05:53:55;;;;;;;11.00;2.53;;;;;;;0.21;98.13;100891.44;5032971;28;20168;-77
2021/01/13 05:56:21;;;;;;;11.07;2.17;;;;;;;0.15;98.05;100884.00;5032876;28;20128;-76
2021/01/13 05:59:02;;;;;;;8.95;1.95;;;;;;;0.16;97.54;100886.50;5017134;28;20144;-77
2021/01/13 06:01:35;;;;;;;14.60;2.63;;;;;;;0.08;97.41;100890.38;5033658;28;20034;-77
2021/01/13 06:04:04;;;;;;;10.52;2.10;;;;;;;-0.08;98.09;100885.13;5016045;28;20456;-76
2021/01/13 06:06:35;;;;;;;12.63;2.80;;;;;;;0.05;98.24;100887.94;5037935;28;20048;-77
2021/01/13 06:09:03;;;;;;;12.70;2.50;;;;;;;0.09;98.13;100887.69;5014941;28;20088;-76
2021/01/13 06:11:32;;;;;;;12.00;3.03;;;;;;;0.07;97.92;100883.53;4997313;28;20033;-76
2021/01/13 06:14:05;;;;;;;17.05;2.70;;;;;;;0.00;98.48;100893.34;5033144;28;20033;-76
2021/01/13 06:16:31;;;;;;;;;;;;;;;0.07;98.69;100884.38;5032804;28;20057;-77
2021/01/13 06:18:56;;;;;;;13.27;2.40;;;;;;;0.15;98.17;100882.25;5000101;28;20006;-77
2021/01/13 06:21:22;;;;;;;8.45;2.10;;;;;;;0.15;97.98;100891.72;5016282;28;20025;-77
2021/01/13 06:23:51;;;;;;;9.23;1.90;;;;;;;0.21;97.84;100893.16;4999603;28;20139;-76
2021/01/13 06:26:18;;;;;;;12.90;1.83;;;;;;;0.22;98.21;100887.94;5034071;28;20088;-76
2021/01/13 06:28:58;;;;;;;9.63;2.95;;;;;;;0.28;98.17;100892.78;5003381;28;20496;-75
2021/01/13 06:31:25;;;;;;;10.82;1.70;;;;;;;0.27;97.89;100885.16;5033146;28;20397;-77
2021/01/13 06:34:20;;;;;;;7.35;1.98;;;;;;;0.29;97.95;100891.88;5016665;28;20033;-75
2021/01/13 06:37:03;;;;;;;9.60;2.20;;;;;;;0.34;97.72;100891.66;5016126;28;20049;-77
2021/01/13 06:39:32;;;;;;;10.10;1.83;;;;;;;0.33;97.44;100874.50;5015907;28;20454;-76
2021/01/13 06:41:59;;;;;;;8.30;2.00;;;;;;;0.32;97.69;100875.41;5000211;28;20033;-76
2021/01/13 06:44:24;;;;;;;8.73;1.90;;;;;;;0.35;97.62;100883.00;5038275;28;20372;-76
2021/01/13 06:46:53;;;;;;;14.13;2.30;;;;;;;0.32;97.84;100877.97;5020732;28;20055;-76
2021/01/13 06:49:21;;;;;;;21.42;2.60;;;;;;;0.33;97.61;100864.19;5037436;28;20067;-76
2021/01/13 06:51:48;;;;;;;11.90;2.00;;;;;;;0.34;97.93;100871.00;5033133;28;20037;-76
2021/01/13 06:54:16;;;;;;;10.30;2.08;;;;;;;0.30;98.35;100882.38;5017153;28;20484;-78
2021/01/13 06:56:52;;;;;;;12.02;2.75;;;;;;;0.42;97.95;100866.31;5016092;28;20041;-75
2021/01/13 06:59:20;;;;;;;9.95;1.85;;;;;;;0.45;96.82;100853.22;5034042;28;20583;-76
2021/01/13 07:01:53;;;;;;;11.10;1.90;;;;;;;0.42;97.46;100862.91;5024641;28;20635;-77
2021/01/13 07:04:20;;;;;;;15.95;2.30;;;;;;;0.37;97.52;100869.09;5035962;28;20040;-76
2021/01/13 07:07:06;;;;;;;11.68;2.22;;;;;;;0.38;97.44;100877.69;5020261;28;20048;-76
2021/01/13 07:09:33;;;;;;;17.38;3.10;;;;;;;0.38;97.57;100881.09;5016750;28;20060;-76
2021/01/13 07:12:05;;;;;;;8.98;2.80;;;;;;;0.42;97.53;100876.63;5016237;28;20025;-76
2021/01/13 07:14:35;;;;;;;12.35;2.45;;;;;;;0.49;97.18;100879.72;5037105;28;20049;-75
2021/01/13 07:17:01;;;;;;;8.07;2.22;;;;;;;0.38;97.17;100872.53;5020304;28;20498;-76
2021/01/13 07:19:27;;;;;;;12.90;2.10;;;;;;;0.43;97.13;100880.03;5020823;28;20120;-76
2021/01/13 07:21:53;;;;;;;11.32;2.50;;;;;;;0.42;97.46;100868.88;5021340;28;20028;-76
2021/01/13 07:24:19;;;;;;;7.97;2.00;;;;;;;0.45;97.08;100862.72;5040122;28;20037;-77
2021/01/13 07:26:45;;;;;;;9.25;2.20;;;;;;;0.48;97.54;100872.91;5039748;28;20047;-77
2021/01/13 07:29:11;;;;;;;20.10;2.55;;;;;;;0.51;97.56;100871.00;5040080;28;20045;-76
2021/01/13 07:31:37;;;;;;;11.15;2.45;;;;;;;0.56;97.17;100863.81;5057626;28;20041;-77
2021/01/13 07:34:08;;;;;;;15.20;2.25;;;;;;;0.56;97.27;100879.31;5038378;28;20524;-76
2021/01/13 07:36:38;;;;;;;15.20;2.67;;;;;;;0.72;96.83;100888.88;5022372;28;20039;-76
2021/01/13 07:39:06;;;;;;;18.42;3.30;;;;;;;0.70;97.09;100881.22;5022932;28;20501;-78
2021/01/13 07:41:56;;;;;;;18.00;2.28;;;;;;;0.61;97.27;100888.59;5039249;28;20029;-77
2021/01/13 07:44:34;;;;;;;20.02;2.40;;;;;;;0.48;97.87;100886.63;5019742;28;20041;-77
2021/01/13 07:47:01;;;;;;;15.23;2.33;;;;;;;0.46;98.09;100887.63;5004795;28;20052;-75
2021/01/13 07:49:41;;;;;;;13.57;2.28;;;;;;;0.49;98.05;100885.72;5038455;28;20029;-76
2021/01/13 07:52:09;;;;;;;11.55;2.40;;;;;;;0.47;98.46;100900.47;5038451;28;20043;-77
2021/01/13 07:54:36;;;;;;;17.48;2.28;;;;;;;0.58;98.27;100894.72;5057002;28;20414;-76
2021/01/13 07:57:06;;;;;;;15.23;1.95;;;;;;;0.59;98.10;100880.94;5022471;28;20032;-76
2021/01/13 07:59:44;;;;;;;8.68;1.80;;;;;;;0.57;97.77;100875.84;5022129;28;20064;-76
2021/01/13 08:02:28;;;;;;;11.70;1.77;;;;;;;0.63;97.95;100881.59;5030821;28;20029;-75
2021/01/13 08:05:12;;;;;;;10.80;1.65;;;;;;;0.57;97.32;100870.69;5039089;28;20042;-76
2021/01/13 08:07:40;;;;;;;11.75;1.20;;;;;;;0.47;97.93;100876.38;5018474;28;20033;-77
2021/01/13 08:10:07;;;;;;;9.35;1.67;;;;;;;0.45;97.54;100870.47;5030672;28;20037;-76
2021/01/13 08:13:09;;;;;;;7.00;1.40;;;;;;;0.43;97.72;100867.13;5048145;28;20045;-76
2021/01/13 08:15:50;;;;;;;7.97;1.13;;;;;;;0.35;97.64;100870.09;5005317;28;20037;-76
2021/01/13 08:18:37;;;;;;;10.90;1.60;;;;;;;0.37;96.96;100861.34;5010921;28;20052;-76
2021/01/13 08:21:13;;;;;;;10.20;1.30;;;;;;;0.42;97.18;100861.13;5035531;28;20042;-76
2021/01/13 08:23:51;;;;;;;8.85;1.50;;;;;;;0.42;97.51;100850.81;5034355;28;20041;-75
2021/01/13 08:26:17;;;;;;;9.18;1.65;;;;;;;0.44;97.17;100840.41;5001678;28;20683;-76
2021/01/13 08:28:47;;;;;;;16.65;2.22;;;;;;;0.47;97.79;100842.81;5018205;28;20036;-76
2021/01/13 08:31:22;;;;;;;5.75;1.65;;;;;;;0.54;97.60;100841.59;5018003;28;20053;-76
2021/01/13 08:34:08;;;;;;;11.25;2.58;;;;;;;0.58;97.32;100825.03;5017775;28;20041;-76
2021/01/13 08:36:50;;;;;;;7.10;1.60;;;;;;;0.62;97.60;100828.28;5018449;28;20399;-78
2021/01/13 08:39:16;;;;;;;8.65;1.48;;;;;;;0.67;97.14;100821.16;5017581;28;20040;-76
2021/01/13 08:41:44;;;;;;;10.73;2.05;;;;;;;0.71;97.09;100825.22;5035257;28;20029;-75
2021/01/13 08:44:16;;;;;;;8.13;1.85;;;;;;;0.71;97.18;100828.63;5027927;28;20071;-74
2021/01/13 08:46:46;;;;;;;8.75;2.15;;;;;;;0.91;96.53;100837.91;5027959;28;20119;-78
2021/01/13 08:49:22;;;;;;;8.63;1.90;;;;;;;0.93;95.54;100820.59;5017408;28;20049;-75
2021/01/13 08:52:10;;;;;;;10.20;1.58;;;;;;;0.77;96.14;100819.72;5025815;28;20035;-77
2021/01/13 08:54:42;;;;;;;17.38;2.10;;;;;;;0.67;96.66;100818.56;5029881;28;20043;-75
2021/01/13 08:57:09;;;;;;;10.63;1.83;;;;;;;0.60;97.12;100812.06;5020846;28;20025;-76
2021/01/13 08:59:41;;;;;;;11.32;2.20;;;;;;;0.68;96.99;100810.75;5013602;28;20038;-76
2021/01/13 09:02:12;;;;;;;12.25;1.83;;;;;;;0.64;97.25;100805.81;5003220;28;20780;-76
2021/01/13 09:04:45;;;;;;;8.65;1.63;;;;;;;0.65;96.59;100802.31;5037327;28;20062;-76
2021/01/13 09:07:13;;;;;;;9.57;1.42;;;;;;;0.73;96.63;100808.72;5036351;28;20048;-75
2021/01/13 09:09:42;;;;;;;8.55;1.48;;;;;;;0.81;96.81;100810.06;5019479;28;20034;-76
2021/01/13 09:12:29;;;;;;;8.40;1.85;;;;;;;0.90;96.92;100813.00;5046615;28;20037;-77
2021/01/13 09:15:07;;;;;;;16.17;1.70;;;;;;;1.06;96.80;100810.44;5016937;28;20053;-76
2021/01/13 09:17:53;;;;;;;9.32;1.70;;;;;;;1.22;96.23;100822.50;5006799;28;20040;-78
2021/01/13 09:20:22;;;;;;;13.25;2.17;;;;;;;1.22;95.76;100812.16;5002477;28;20021;-76
2021/01/13 09:23:02;;;;;;;19.77;2.70;;;;;;;1.17;95.48;100804.69;5034135;28;20049;-76
2021/01/13 09:25:30;;;;;;;13.20;2.60;;;;;;;1.16;96.02;100798.66;4998352;28;20034;-76
2021/01/13 09:28:01;;;;;;;22.08;2.38;;;;;;;1.19;96.34;100802.00;5025348;28;20047;-76
2021/01/13 09:30:36;;;;;;;11.20;2.80;;;;;;;1.32;95.81;100814.16;5016916;28;20041;-76
2021/01/13 09:33:05;;;;;;;12.48;2.35;;;;;;;1.50;95.87;100814.88;5018201;28;20036;-76
2021/01/13 09:35:33;;;;;;;16.15;2.50;;;;;;;1.54;95.59;100805.19;5037028;28;20506;-76
2021/01/13 09:38:30;;;;;;;12.50;1.90;;;;;;;1.49;94.38;100787.38;5036009;28;20044;-76
2021/01/13 09:41:03;;;;;;;16.42;2.63;;;;;;;1.49;94.78;100789.97;5049673;28;20059;-78
2021/01/13 09:43:34;;;;;;;14.88;2.22;;;;;;;1.44;94.86;100785.97;5035502;28;20622;-78
2021/01/13 09:46:06;;;;;;;18.90;2.72;;;;;;;1.43;94.63;100786.88;5044351;28;20041;-76
2021/01/13 09:48:33;;;;;;;14.35;2.50;;;;;;;1.50;94.73;100786.44;5016387;28;20038;-78
2021/01/13 09:51:12;;;;;;;17.48;3.70;;;;;;;1.60;95.19;100786.78;5008800;28;20130;-76
2021/01/13 09:53:52;;;;;;;16.77;2.40;;;;;;;1.68;94.58;100779.41;5024913;28;20097;-75
2021/01/13 09:56:18;;;;;;;17.77;2.72;;;;;;;1.73;93.98;100774.81;5033124;28;20075;-78
2021/01/13 09:58:46;;;;;;;14.50;2.28;;;;;;;1.67;94.00;100771.72;5016217;28;20045;-76
2021/01/13 10:01:20;;;;;;;14.32;2.60;;;;;;;1.59;93.72;100767.00;5034146;28;20029;-76
2021/01/13 10:03:50;;;;;;;15.65;2.78;;;;;;;1.68;94.50;100783.75;5016799;28;20033;-76
2021/01/13 10:06:21;;;;;;;14.80;2.97;;;;;;;1.89;94.72;100779.91;5016854;28;20037;-76
2021/01/13 10:08:48;;;;;;;15.70;2.30;;;;;;;1.95;94.63;100774.34;5012935;28;20064;-76
2021/01/13 10:11:15;;;;;;;20.63;2.28;;;;;;;2.07;94.14;100782.31;4999885;28;20490;-76
2021/01/13 10:13:43;;;;;;;15.80;2.00;;;;;;;2.04;92.90;100769.59;5033045;28;20091;-76
2021/01/13 10:16:11;;;;;;;14.45;1.90;;;;;;;2.07;92.95;100762.47;5015191;28;20033;-76
2021/01/13 10:18:52;;;;;;;20.38;2.00;;;;;;;2.03;92.85;100753.19;4997944;28;20080;-76
2021/01/13 10:21:18;;;;;;;17.05;2.20;;;;;;;2.08;93.63;100752.94;5007318;28;20479;-75
2021/01/13 10:23:46;;;;;;;16.50;2.45;;;;;;;2.14;93.88;100752.56;5030816;28;20399;-76
2021/01/13 10:26:12;;;;;;;16.55;2.03;;;;;;;2.27;93.24;100744.91;5033784;28;20044;-76
2021/01/13 10:28:38;;;;;;;19.02;2.60;;;;;;;2.46;93.28;100745.44;4999795;28;20037;-75
2021/01/13 10:31:06;;;;;;;11.55;2.30;;;;;;;2.55;92.05;100732.88;5015542;28;20046;-75
2021/01/13 10:33:42;;;;;;;13.98;2.10;;;;;;;2.53;92.23;100735.56;5032857;28;20552;-76
2021/01/13 10:36:29;;;;;;;13.30;2.17;;;;;;;2.41;91.80;100728.53;5002559;28;20032;-78
2021/01/13 10:38:54;;;;;;;12.90;2.40;;;;;;;2.47;91.67;100726.41;5035839;28;20517;-76
2021/01/13 10:41:31;;;;;;;9.60;2.03;;;;;;;2.57;91.04;100720.66;5036317;28;20033;-74
2021/01/13 10:44:03;;;;;;;18.73;2.40;;;;;;;2.68;91.00;100729.41;4985738;28;20033;-77
2021/01/13 10:46:41;;;;;;;20.85;2.70;;;;;;;2.52;91.01;100744.22;5001905;28;20037;-75
2021/01/13 10:49:18;;;;;;;21.13;2.38;;;;;;;2.36;92.07;100736.59;5038691;28;20043;-76
2021/01/13 10:51:50;;;;;;;12.32;1.90;;;;;;;2.21;92.43;100716.81;4995021;28;20033;-75
2021/01/13 10:54:21;;;;;;;18.15;1.95;;;;;;;2.13;92.72;100723.28;5031443;28;20029;-75
2021/01/13 10:56:51;;;;;;;18.52;2.15;;;;;;;2.13;93.75;100728.47;5032586;28;20033;-75
2021/01/13 10:59:18;;;;;;;15.98;2.47;;;;;;;2.23;94.36;100725.31;5015360;28;20029;-75
2021/01/13 11:01:54;;;;;;;14.73;1.90;;;;;;;2.43;92.47;100724.94;4999521;28;20037;-75
2021/01/13 11:04:28;;;;;;;21.27;2.15;;;;;;;2.65;93.95;100718.41;5031935;28;20037;-75
2021/01/13 11:06:55;;;;;;;16.52;2.25;;;;;;;2.76;91.44;100697.03;5019311;28;20112;-76
2021/01/13 11:09:23;;;;;;;12.48;1.63;;;;;;;2.79;90.74;100691.63;5013286;28;20059;-75
2021/01/13 11:11:48;;;;;;;17.80;2.25;;;;;;;2.92;90.81;100690.78;5014738;28;20048;-76
2021/01/13 11:14:14;;;;;;;20.27;2.65;;;;;;;3.09;89.57;100671.53;4990261;28;20116;-75
2021/01/13 11:17:12;;;;;;;19.05;2.63;;;;;;;3.32;89.89;100684.75;5001454;28;20537;-76
2021/01/13 11:19:39;;;;;;;18.00;1.70;;;;;;;3.20;89.11;100680.38;4999812;28;20045;-75
2021/01/13 11:22:05;;;;;;;20.20;2.00;;;;;;;3.14;90.05;100683.38;5031165;28;20033;-74
2021/01/13 11:24:42;;;;;;;17.25;2.45;;;;;;;3.10;89.08;100669.78;5032059;28;20395;-75
2021/01/13 11:27:11;;;;;;;27.50;2.53;;;;;;;3.07;89.89;100664.78;5014420;28;20132;-75
2021/01/13 11:29:39;;;;;;;18.58;2.20;;;;;;;3.04;90.05;100652.84;5014387;28;20040;-76
2021/01/13 11:32:07;;;;;;;13.60;2.05;;;;;;;3.05;90.07;100643.31;5014450;28;20038;-76
2021/01/13 11:34:33;;;;;;;15.05;2.45;;;;;;;3.04;90.22;100647.69;5001225;28;20025;-77
2021/01/13 11:37:06;;;;;;;27.45;2.53;;;;;;;3.15;90.24;100639.19;5034326;28;20037;-75
2021/01/13 11:39:32;;;;;;;17.63;2.58;;;;;;;3.10;89.33;100623.13;5043481;28;20080;-76
2021/01/13 11:42:13;;;;;;;23.85;2.20;;;;;;;3.05;89.52;100625.19;5050873;28;20039;-75
2021/01/13 11:45:04;;;;;;;14.60;2.28;;;;;;;2.99;89.72;100612.63;4997914;28;20045;-75
2021/01/13 11:47:39;;;;;;;16.63;1.85;;;;;;;3.01;88.95;100598.63;5011036;28;20046;-75